Clark Center, Illinois
Current Conditions -  °F | °C
As of 10:15 AM on Sunday 25 Jan 2015 (Local Time) from KPRG Reporting Station
Drizzle Drizzle  
Wind Chill: 37°   Ceiling: 3800
Heat Index: 37°   Visibility: 4mi
Dew Point: 37°   Wind: 0mph
Humidity: 97%   Direction: NA
Pressure: 29.65"   Gusts: NA
Location:  39.4361°N, 87.7043°W
Report Text: KPRG 251615Z AUTO 00000KT 4SM -DZ SCT019 OVC038 03/03 A2965 RMK AO2 T00300025
Loading
Personal Weather Stations






























Interactive Weather Map New forecast layout! Learn more

10-Day Weather Forecast

Advertisements
Track Severe Weather on mobile